createdAt,value
2023-02-04T00:04:50.194Z,8.83
2023-02-04T00:11:13.197Z,8.81
2023-02-04T00:17:33.252Z,8.79
2023-02-04T00:23:56.605Z,8.76
2023-02-04T00:30:16.230Z,8.73
2023-02-04T00:36:39.184Z,8.71
2023-02-04T00:42:59.283Z,8.68
2023-02-04T00:49:22.161Z,8.65
2023-02-04T00:55:42.206Z,8.61
2023-02-04T01:02:05.197Z,8.58
2023-02-04T01:08:25.325Z,8.55
2023-02-04T01:14:48.217Z,8.53
2023-02-04T01:21:08.187Z,8.49
2023-02-04T01:27:31.244Z,8.47
2023-02-04T01:33:51.258Z,8.45
2023-02-04T01:40:14.217Z,8.42
2023-02-04T01:46:34.194Z,8.38
2023-02-04T01:52:57.214Z,8.37
2023-02-04T01:59:17.261Z,8.36
2023-02-04T02:05:40.240Z,8.35
2023-02-04T02:12:00.210Z,8.33
2023-02-04T02:18:23.180Z,8.33
2023-02-04T02:24:43.212Z,8.32
2023-02-04T02:31:06.274Z,8.3
2023-02-04T02:37:26.213Z,8.28
2023-02-04T02:43:49.187Z,8.24
2023-02-04T02:50:09.249Z,8.2
2023-02-04T02:56:32.168Z,8.17
2023-02-04T03:02:52.302Z,8.14
2023-02-04T03:09:15.229Z,8.14
2023-02-04T03:15:35.205Z,8.13
2023-02-04T03:21:58.219Z,8.08
2023-02-04T03:28:18.285Z,8.01
2023-02-04T03:34:41.208Z,7.94
2023-02-04T03:41:01.213Z,7.89
2023-02-04T03:47:24.194Z,7.86
2023-02-04T03:53:44.252Z,7.83
2023-02-04T04:00:07.202Z,7.8
2023-02-04T04:06:27.210Z,7.79
2023-02-04T04:12:50.251Z,7.76
2023-02-04T04:36:14.174Z,7.67
2023-02-04T04:42:34.234Z,7.65
2023-02-04T04:48:57.205Z,7.62
2023-02-04T04:55:17.220Z,7.59
2023-02-04T05:01:40.191Z,7.57
2023-02-04T05:08:00.210Z,7.56
2023-02-04T05:14:23.207Z,7.54
2023-02-04T05:20:43.208Z,7.52
2023-02-04T05:27:06.197Z,7.46
2023-02-04T05:33:26.260Z,7.42
2023-02-04T05:39:49.199Z,7.37
2023-02-04T05:46:09.274Z,7.35
2023-02-04T05:52:32.229Z,7.34
2023-02-04T05:58:52.200Z,7.34
2023-02-04T06:05:15.211Z,7.31
2023-02-04T06:11:35.215Z,7.29
2023-02-04T06:17:58.165Z,7.3
2023-02-04T06:24:18.246Z,7.29
2023-02-04T06:30:41.276Z,7.27
2023-02-04T06:37:01.174Z,7.26
2023-02-04T06:43:24.216Z,7.24
2023-02-04T06:49:44.205Z,7.23
2023-02-04T06:56:07.190Z,7.23
2023-02-04T07:02:27.194Z,7.25
2023-02-04T07:08:50.313Z,7.26
2023-02-04T07:15:10.191Z,7.28
2023-02-04T07:21:33.208Z,7.32
2023-02-04T07:27:53.254Z,7.39
2023-02-04T07:34:16.193Z,7.43
2023-02-04T07:40:36.175Z,7.46
2023-02-04T07:46:59.205Z,7.48
2023-02-04T07:53:19.181Z,7.55
2023-02-04T07:59:42.174Z,7.66
2023-02-04T08:06:02.221Z,7.66
2023-02-04T08:12:25.137Z,7.59
2023-02-04T08:18:45.181Z,7.59
2023-02-04T08:25:08.202Z,7.62
2023-02-04T08:31:28.285Z,7.63
2023-02-04T08:37:51.176Z,7.65
2023-02-04T08:44:11.168Z,7.71
2023-02-04T08:50:34.463Z,7.82
2023-02-04T08:56:54.180Z,7.89
2023-02-04T09:03:17.249Z,7.89
2023-02-04T09:09:37.210Z,7.88
2023-02-04T09:16:00.317Z,7.87
2023-02-04T09:22:20.230Z,7.93
2023-02-04T09:28:43.201Z,7.95
2023-02-04T09:35:03.231Z,8.03
2023-02-04T09:51:13.139Z,8.11
2023-02-04T09:57:33.158Z,8.15
2023-02-04T10:03:56.220Z,8.21
2023-02-04T10:10:16.226Z,8.32
2023-02-04T10:16:39.230Z,8.41
2023-02-04T10:22:59.200Z,8.46
2023-02-04T10:29:22.208Z,8.52
2023-02-04T10:35:42.169Z,8.67
2023-02-04T10:42:05.166Z,8.89
2023-02-04T10:48:25.209Z,9.03
2023-02-04T10:54:48.204Z,8.93
2023-02-04T11:01:08.280Z,9.07
2023-02-04T11:07:31.255Z,9.27
2023-02-04T11:13:51.178Z,9.57
2023-02-04T11:20:14.158Z,9.62
2023-02-04T11:26:34.217Z,9.68
2023-02-04T11:32:57.163Z,9.52
2023-02-04T11:39:17.167Z,9.72
2023-02-04T11:45:40.196Z,9.96
2023-02-04T11:52:00.165Z,9.98
2023-02-04T11:58:23.203Z,9.82
2023-02-04T12:04:43.197Z,9.77
2023-02-04T12:11:06.173Z,9.76
2023-02-04T12:17:26.183Z,9.88
2023-02-04T12:23:49.207Z,9.83
2023-02-04T12:30:09.193Z,9.86
2023-02-04T12:36:32.167Z,9.86
2023-02-04T12:42:52.193Z,9.88
2023-02-04T12:49:15.225Z,9.84
2023-02-04T12:55:35.458Z,9.85
2023-02-04T13:01:58.282Z,9.82
2023-02-04T13:08:18.147Z,9.74
2023-02-04T13:14:41.189Z,9.71
2023-02-04T13:21:01.238Z,9.75
2023-02-04T13:27:24.160Z,9.72
2023-02-04T13:33:44.280Z,9.69
2023-02-04T13:40:07.182Z,9.78
2023-02-04T13:46:27.189Z,9.87
2023-02-04T13:52:50.211Z,9.88
2023-02-04T13:59:10.183Z,9.97
2023-02-04T14:05:33.204Z,10.25
2023-02-04T14:11:53.180Z,10.54
2023-02-04T14:18:16.273Z,10.72
2023-02-04T14:24:36.272Z,10.8
2023-02-04T14:30:59.264Z,10.83
2023-02-04T14:37:19.256Z,10.92
2023-02-04T14:43:42.154Z,10.98
2023-02-04T14:50:02.204Z,11.1
2023-02-04T14:56:25.256Z,11.26
2023-02-04T15:02:45.305Z,11.08
2023-02-04T15:18:38.081Z,10.82
2023-02-04T15:24:58.186Z,10.61
2023-02-04T15:31:21.271Z,10.54
2023-02-04T15:37:41.220Z,10.43
2023-02-04T15:44:04.161Z,10.24
2023-02-04T15:50:24.191Z,10.05
2023-02-04T15:56:47.245Z,9.92
2023-02-04T16:03:07.171Z,9.73
2023-02-04T16:09:30.264Z,9.61
2023-02-04T16:15:50.258Z,9.49
2023-02-04T16:22:13.190Z,9.43
2023-02-04T16:28:33.201Z,9.32
2023-02-04T16:34:56.232Z,9.25
2023-02-04T16:41:16.253Z,9.16
2023-02-04T16:47:39.161Z,9.13
2023-02-04T16:53:59.211Z,9.13
2023-02-04T17:00:22.181Z,9.04
2023-02-04T17:06:42.185Z,8.92
2023-02-04T17:13:05.263Z,8.85
2023-02-04T17:19:25.375Z,8.76
2023-02-04T17:25:48.216Z,8.69
2023-02-04T17:32:08.208Z,8.64
2023-02-04T17:38:31.610Z,8.6
2023-02-04T17:44:51.198Z,8.47
2023-02-04T17:51:14.211Z,8.36
2023-02-04T17:57:34.261Z,8.33
2023-02-04T18:03:57.231Z,8.26
2023-02-04T18:10:17.230Z,8.24
2023-02-04T18:16:40.257Z,8.19
2023-02-04T18:23:00.247Z,8.17
2023-02-04T18:29:23.256Z,8.14
2023-02-04T18:35:43.187Z,8.09
2023-02-04T18:42:06.220Z,8.03
2023-02-04T18:48:26.188Z,7.92
2023-02-04T18:54:49.142Z,7.79
2023-02-04T19:01:09.206Z,7.72
2023-02-04T19:07:32.234Z,7.64
2023-02-04T19:13:52.859Z,7.62
2023-02-04T19:20:15.655Z,7.61
2023-02-04T19:26:35.214Z,7.57
2023-02-04T19:32:58.177Z,7.58
2023-02-04T19:39:18.187Z,7.51
2023-02-04T19:45:41.235Z,7.4
2023-02-04T19:52:01.220Z,7.33
2023-02-04T19:58:24.163Z,7.28
2023-02-04T20:04:44.203Z,7.24
2023-02-04T20:28:38.179Z,6.83
2023-02-04T20:35:01.156Z,6.73
2023-02-04T20:41:21.178Z,6.64
2023-02-04T20:47:44.242Z,6.63
2023-02-04T20:54:04.171Z,6.66
2023-02-04T21:00:27.213Z,6.7
2023-02-04T21:06:47.447Z,6.63
2023-02-04T21:13:10.200Z,6.57
2023-02-04T21:19:30.197Z,6.53
2023-02-04T21:25:53.192Z,6.56
2023-02-04T21:32:13.236Z,6.57
2023-02-04T21:38:36.172Z,6.5
2023-02-04T21:44:56.228Z,6.43
2023-02-04T21:51:19.165Z,6.39
2023-02-04T21:57:39.615Z,6.39
2023-02-04T22:04:02.249Z,6.41
2023-02-04T22:10:22.175Z,6.45
2023-02-04T22:16:45.195Z,6.52
2023-02-04T22:23:05.253Z,6.51
2023-02-04T22:29:28.186Z,6.46
2023-02-04T22:35:48.267Z,6.45
2023-02-04T22:42:11.212Z,6.44
2023-02-04T22:48:31.475Z,6.31
2023-02-04T22:54:54.242Z,6.27
2023-02-04T23:20:25.166Z,5.93
2023-02-04T23:26:45.198Z,5.93
2023-02-04T23:33:08.223Z,5.95
2023-02-04T23:39:28.318Z,6
2023-02-04T23:45:51.206Z,6.04
2023-02-04T23:52:11.210Z,6.1
2023-02-04T23:58:34.182Z,6.12
